Time;durP1;ratioP1;P1;durP2;ratioP2;P2;SDS_P1;SDS_P2;PMS_P1;PMS_P2;Temp;Humidity;BMP_temperature;BMP_pressure;BME280_temperature;BME280_humidity;BME280_pressure;Samples;Min_cycle;Max_cycle;Signal;HPM_P1;HPM_P2
2023/02/04 00:01:57;;;;;;;1.88;1.00;;;24.50;46.40;;;;;;4154980;28;20041;-41
2023/02/04 00:04:19;;;;;;;1.92;1.00;;;24.60;46.30;;;;;;4152127;28;20033;-39
2023/02/04 00:06:42;;;;;;;1.75;1.05;;;24.50;46.30;;;;;;4152114;28;20060;-39
2023/02/04 00:09:05;;;;;;;1.10;0.90;;;24.50;46.40;;;;;;4154507;28;20100;-41
2023/02/04 00:11:27;;;;;;;1.63;0.93;;;24.50;46.50;;;;;;4146054;28;20049;-42
2023/02/04 00:13:50;;;;;;;1.00;0.77;;;24.50;46.60;;;;;;4151355;28;20078;-46
2023/02/04 00:16:12;;;;;;;1.27;0.98;;;24.50;46.20;;;;;;4151550;28;20041;-40
2023/02/04 00:18:35;;;;;;;1.63;0.90;;;24.50;46.00;;;;;;4153115;28;20045;-47
2023/02/04 00:20:58;;;;;;;1.70;0.77;;;24.50;45.50;;;;;;4143236;28;20377;-42
2023/02/04 00:23:20;;;;;;;1.05;0.70;;;24.50;45.00;;;;;;4143661;28;20063;-42
2023/02/04 00:25:43;;;;;;;1.15;0.73;;;24.50;45.60;;;;;;4148731;28;20038;-38
2023/02/04 00:28:06;;;;;;;1.38;0.95;;;24.50;45.60;;;;;;4148722;28;20060;-39
2023/02/04 00:30:28;;;;;;;1.20;1.00;;;24.50;45.70;;;;;;4152064;28;20040;-42
2023/02/04 00:32:53;;;;;;;2.67;0.85;;;24.50;45.20;;;;;;4149930;28;20792;-42
2023/02/04 00:35:16;;;;;;;3.67;0.63;;;24.50;45.40;;;;;;4148589;28;20409;-44
2023/02/04 00:37:38;;;;;;;1.67;0.60;;;24.50;45.60;;;;;;4149225;28;20076;-43
2023/02/04 00:40:01;;;;;;;3.42;0.70;;;24.50;46.10;;;;;;4147431;28;20037;-45
2023/02/04 00:42:24;;;;;;;6.93;5.03;;;24.60;46.40;;;;;;4150060;28;20033;-44
2023/02/04 00:44:46;;;;;;;6.30;5.70;;;24.50;46.70;;;;;;4150480;28;20048;-42
2023/02/04 00:47:09;;;;;;;7.95;7.22;;;24.30;46.10;;;;;;4151209;28;20068;-44
2023/02/04 00:49:35;;;;;;;8.13;7.32;;;24.10;46.60;;;;;;4147524;28;20107;-41
2023/02/04 00:51:57;;;;;;;7.75;6.78;;;23.90;46.50;;;;;;4144939;28;20490;-40
2023/02/04 00:54:20;;;;;;;6.88;6.18;;;23.60;47.20;;;;;;4147880;28;20033;-39
2023/02/04 00:56:44;;;;;;;6.37;5.30;;;23.50;46.70;;;;;;4149166;28;20044;-39
2023/02/04 00:59:07;;;;;;;5.25;4.68;;;23.40;47.10;;;;;;4160618;28;20433;-39
2023/02/04 01:01:30;;;;;;;4.43;3.70;;;23.20;47.20;;;;;;4147475;28;20068;-41
2023/02/04 01:03:52;;;;;;;4.55;3.60;;;23.00;47.80;;;;;;4150271;28;20469;-39
2023/02/04 01:06:15;;;;;;;3.90;3.00;;;22.90;47.50;;;;;;4147968;28;20041;-39
2023/02/04 01:08:37;;;;;;;3.67;2.58;;;22.80;48.50;;;;;;4147756;28;20414;-42
2023/02/04 01:11:00;;;;;;;4.03;2.40;;;22.70;48.20;;;;;;4148159;28;20165;-42
2023/02/04 01:13:23;;;;;;;5.05;2.25;;;22.60;48.20;;;;;;4147146;28;20105;-41
2023/02/04 01:15:45;;;;;;;3.25;1.70;;;22.50;48.80;;;;;;4147755;28;20037;-42
2023/02/04 01:18:08;;;;;;;2.92;1.58;;;22.40;49.00;;;;;;4149501;28;20449;-40
2023/02/04 01:20:31;;;;;;;1.77;1.42;;;22.30;49.00;;;;;;4150081;28;20469;-47
2023/02/04 01:22:53;;;;;;;2.38;1.67;;;22.20;48.80;;;;;;4149600;28;20044;-44
2023/02/04 01:25:16;;;;;;;1.50;1.40;;;22.10;48.30;;;;;;4150917;28;20135;-46
2023/02/04 01:27:38;;;;;;;2.40;1.25;;;22.00;48.10;;;;;;4151402;28;20076;-42
2023/02/04 01:30:02;;;;;;;1.50;1.20;;;21.80;48.50;;;;;;4148414;28;20117;-43
2023/02/04 01:32:24;;;;;;;1.30;0.85;;;21.70;48.70;;;;;;4150249;28;20116;-40
2023/02/04 01:34:47;;;;;;;0.88;0.80;;;21.60;49.00;;;;;;4148947;28;20036;-42
2023/02/04 01:37:10;;;;;;;6.00;2.15;;;21.60;48.50;;;;;;4151765;28;20718;-39
2023/02/04 01:39:32;;;;;;;2.80;0.82;;;21.60;49.20;;;;;;4152369;28;20044;-43
2023/02/04 01:41:56;;;;;;;2.30;0.95;;;21.60;49.40;;;;;;4151869;28;20088;-44
2023/02/04 01:44:19;;;;;;;1.27;0.60;;;21.70;48.40;;;;;;4149302;28;20037;-41
2023/02/04 01:46:42;;;;;;;1.10;0.75;;;21.70;47.70;;;;;;4153363;28;20056;-45
2023/02/04 01:49:06;;;;;;;4.88;1.27;;;21.80;47.20;;;;;;4148005;28;20045;-40
2023/02/04 01:51:30;;;;;;;9.68;1.65;;;21.80;46.90;;;;;;4150930;28;20049;-40
2023/02/04 01:53:54;;;;;;;;;;;21.90;46.50;;;;;;4147974;28;20045;-39
2023/02/04 01:56:21;;;;;;;2.97;0.80;;;22.00;46.70;;;;;;4153926;28;20779;-43
2023/02/04 01:58:45;;;;;;;5.63;1.00;;;22.00;47.30;;;;;;4152377;28;20117;-45
2023/02/04 02:01:14;;;;;;;2.30;0.65;;;22.10;47.00;;;;;;4154242;28;20053;-46
2023/02/04 02:03:36;;;;;;;3.40;0.77;;;22.20;46.90;;;;;;4151053;28;20035;-43
2023/02/04 02:05:59;;;;;;;7.45;1.38;;;22.20;47.00;;;;;;4152313;28;20489;-40
2023/02/04 02:08:23;;;;;;;4.55;1.00;;;22.20;46.90;;;;;;4143009;28;20052;-44
2023/02/04 02:10:47;;;;;;;4.60;1.43;;;22.30;47.10;;;;;;4145901;28;20044;-44
2023/02/04 02:13:13;;;;;;;6.50;1.88;;;22.40;46.90;;;;;;4146304;28;20346;-41
2023/02/04 02:15:35;;;;;;;4.18;1.60;;;22.40;46.80;;;;;;4144930;28;20040;-42
2023/02/04 02:17:58;;;;;;;5.80;1.67;;;22.50;46.80;;;;;;4142781;28;20032;-41
2023/02/04 02:20:23;;;;;;;7.45;1.73;;;22.50;46.90;;;;;;4144892;28;20041;-39
2023/02/04 02:23:03;;;;;;;6.07;1.73;;;22.60;46.80;;;;;;4145900;28;20562;-41
2023/02/04 02:25:28;;;;;;;8.07;1.50;;;22.70;46.90;;;;;;4145357;28;20050;-42
2023/02/04 02:27:51;;;;;;;7.40;1.90;;;22.80;46.80;;;;;;4146766;28;20690;-40
2023/02/04 02:30:18;;;;;;;5.05;1.63;;;22.80;47.70;;;;;;4147484;28;20041;-40
2023/02/04 02:32:41;;;;;;;10.15;2.10;;;22.90;46.90;;;;;;4145127;28;20045;-40
2023/02/04 02:35:04;;;;;;;8.07;1.88;;;23.00;47.00;;;;;;4148620;28;20378;-39
2023/02/04 02:37:27;;;;;;;6.85;1.50;;;23.00;47.00;;;;;;4147367;28;20409;-39
2023/02/04 02:39:49;;;;;;;3.65;1.55;;;23.10;47.00;;;;;;4148434;28;20037;-43
2023/02/04 02:42:18;;;;;;;4.80;1.83;;;23.10;46.90;;;;;;4146655;28;20042;-43
2023/02/04 02:44:41;;;;;;;6.40;1.52;;;23.20;46.90;;;;;;4153392;28;20060;-39
2023/02/04 02:47:03;;;;;;;3.90;1.30;;;23.20;46.80;;;;;;4152119;28;20056;-39
2023/02/04 02:49:26;;;;;;;7.80;1.38;;;23.30;46.70;;;;;;4150634;28;20113;-41
2023/02/04 02:51:49;;;;;;;3.72;1.20;;;23.30;46.80;;;;;;4150957;28;20472;-41
2023/02/04 02:54:26;;;;;;;3.70;1.45;;;23.40;47.00;;;;;;4150449;28;20125;-44
2023/02/04 02:56:49;;;;;;;7.72;2.40;;;23.50;46.60;;;;;;4151701;28;20034;-46
2023/02/04 02:59:16;;;;;;;6.95;1.30;;;23.50;47.20;;;;;;4151590;28;20041;-38
2023/02/04 03:01:38;;;;;;;10.15;2.10;;;23.60;47.20;;;;;;4151601;28;20115;-40
2023/02/04 03:04:01;;;;;;;7.88;1.50;;;23.60;47.70;;;;;;4152943;28;20401;-40
2023/02/04 03:06:26;;;;;;;10.20;2.80;;;23.70;47.40;;;;;;4145899;28;20132;-40
2023/02/04 03:08:54;;;;;;;8.20;1.55;;;23.80;47.30;;;;;;4149212;28;20041;-39
2023/02/04 03:11:16;;;;;;;8.52;1.73;;;23.80;46.80;;;;;;4159944;28;20150;-40
2023/02/04 03:13:39;;;;;;;5.78;1.40;;;23.80;46.40;;;;;;4156993;28;20041;-41
2023/02/04 03:16:02;;;;;;;5.55;2.08;;;23.90;46.10;;;;;;4153311;28;20038;-41
2023/02/04 03:18:25;;;;;;;7.53;1.80;;;23.90;45.40;;;;;;4151229;28;20033;-40
2023/02/04 03:20:49;;;;;;;10.88;2.42;;;24.00;44.80;;;;;;4154345;28;20292;-37
2023/02/04 03:23:12;;;;;;;3.75;1.30;;;24.00;44.40;;;;;;4153397;28;20045;-40
2023/02/04 03:25:35;;;;;;;4.57;1.42;;;24.00;44.20;;;;;;4150903;28;20041;-37
2023/02/04 03:27:58;;;;;;;4.32;1.55;;;24.00;44.10;;;;;;4151963;28;20132;-41
2023/02/04 03:30:21;;;;;;;3.25;1.35;;;24.00;44.50;;;;;;4152129;28;20056;-39
2023/02/04 03:32:44;;;;;;;4.10;1.45;;;24.00;44.00;;;;;;4151701;28;20619;-38
2023/02/04 03:35:06;;;;;;;4.75;1.45;;;24.10;44.00;;;;;;4150912;28;20477;-40
2023/02/04 03:37:29;;;;;;;2.40;1.23;;;24.20;43.80;;;;;;4152827;28;20081;-40
2023/02/04 03:39:51;;;;;;;2.65;1.17;;;24.20;43.70;;;;;;4151819;28;20110;-39
2023/02/04 03:42:14;;;;;;;1.60;0.90;;;24.20;44.00;;;;;;4152056;28;20045;-39
2023/02/04 03:44:36;;;;;;;3.58;1.10;;;24.20;43.30;;;;;;4149367;28;20073;-40
2023/02/04 03:46:59;;;;;;;2.58;0.80;;;24.30;43.20;;;;;;4144591;28;20417;-40
2023/02/04 03:49:25;;;;;;;4.80;1.20;;;24.40;43.00;;;;;;4149574;28;20048;-40
2023/02/04 03:51:47;;;;;;;1.80;1.10;;;24.40;42.70;;;;;;4149830;28;20045;-38
2023/02/04 03:54:10;;;;;;;1.13;0.80;;;24.40;42.60;;;;;;4149532;28;20068;-42
2023/02/04 03:56:32;;;;;;;1.80;1.00;;;24.40;42.50;;;;;;4150315;28;20068;-40
2023/02/04 03:58:55;;;;;;;2.75;0.90;;;24.40;42.10;;;;;;4151961;28;20063;-44
2023/02/04 04:01:17;;;;;;;2.67;0.82;;;24.50;42.20;;;;;;4151619;28;20034;-39
2023/02/04 04:03:39;;;;;;;3.05;1.17;;;24.50;41.60;;;;;;4156188;28;20033;-42
2023/02/04 04:06:05;;;;;;;0.82;0.60;;;24.60;42.10;;;;;;4155767;28;20454;-40
2023/02/04 04:08:27;;;;;;;2.55;0.70;;;24.60;41.50;;;;;;4155166;28;20053;-39
2023/02/04 04:10:49;;;;;;;2.53;0.60;;;24.60;41.30;;;;;;4157990;28;20497;-42
2023/02/04 04:13:12;;;;;;;0.52;0.40;;;24.60;41.00;;;;;;4155301;28;20053;-39
2023/02/04 04:15:34;;;;;;;1.08;0.47;;;24.70;41.30;;;;;;4152280;28;20122;-39
2023/02/04 04:17:56;;;;;;;0.85;0.40;;;24.70;41.20;;;;;;4156227;28;20040;-39
2023/02/04 04:20:19;;;;;;;2.38;0.57;;;24.80;40.80;;;;;;4156893;28;20047;-39
2023/02/04 04:22:41;;;;;;;1.38;0.82;;;24.80;40.70;;;;;;4154840;28;20120;-37
2023/02/04 04:25:04;;;;;;;0.70;0.43;;;24.80;40.70;;;;;;4154320;28;20041;-39
2023/02/04 04:27:28;;;;;;;1.10;0.70;;;24.90;40.40;;;;;;4154101;28;20133;-45
2023/02/04 04:29:51;;;;;;;1.10;0.73;;;25.00;40.30;;;;;;4154688;28;20282;-39
2023/02/04 04:32:13;;;;;;;1.67;0.57;;;25.00;40.00;;;;;;4156517;28;20564;-40
2023/02/04 04:34:36;;;;;;;1.02;0.60;;;25.10;39.60;;;;;;4155042;28;20091;-41
2023/02/04 04:36:59;;;;;;;1.20;0.55;;;25.20;40.10;;;;;;4154323;28;20049;-38
2023/02/04 04:39:21;;;;;;;0.38;0.32;;;25.20;39.90;;;;;;4156108;28;20057;-41
2023/02/04 04:41:43;;;;;;;1.08;0.43;;;25.30;39.90;;;;;;4151884;28;20029;-40
2023/02/04 04:44:06;;;;;;;0.68;0.50;;;25.30;39.70;;;;;;4149458;28;20041;-41
2023/02/04 04:46:28;;;;;;;1.63;0.45;;;25.40;39.80;;;;;;4155034;28;20590;-41
2023/02/04 04:48:51;;;;;;;0.40;0.30;;;25.50;39.70;;;;;;4146143;28;20114;-40
2023/02/04 04:51:14;;;;;;;0.38;0.22;;;25.50;39.60;;;;;;4154061;28;20164;-39
2023/02/04 04:53:36;;;;;;;0.95;0.50;;;25.60;39.70;;;;;;4145716;28;20119;-40
2023/02/04 04:55:59;;;;;;;1.75;0.38;;;25.60;39.70;;;;;;4154033;28;20097;-39
2023/02/04 04:58:21;;;;;;;0.32;0.20;;;25.70;39.90;;;;;;4149198;28;20045;-38
2023/02/04 05:00:43;;;;;;;0.98;0.40;;;25.70;39.90;;;;;;4153216;28;20106;-37
2023/02/04 05:03:06;;;;;;;0.73;0.47;;;25.80;39.90;;;;;;4148454;28;20107;-39
2023/02/04 05:05:28;;;;;;;0.55;0.28;;;25.90;39.90;;;;;;4146283;28;20037;-41
2023/02/04 05:07:52;;;;;;;0.55;0.45;;;26.00;39.90;;;;;;4150246;28;20131;-38
2023/02/04 05:10:15;;;;;;;0.30;0.30;;;26.00;39.70;;;;;;4146000;28;20033;-41
2023/02/04 05:12:37;;;;;;;0.40;0.40;;;26.10;39.60;;;;;;4151039;28;20246;-40
2023/02/04 05:15:00;;;;;;;0.55;0.30;;;26.10;39.40;;;;;;4145639;28;20045;-41
2023/02/04 05:17:22;;;;;;;0.40;0.30;;;26.30;39.30;;;;;;4148418;28;20462;-40
2023/02/04 05:19:44;;;;;;;0.32;0.32;;;26.30;39.10;;;;;;4140027;28;20041;-40
2023/02/04 05:22:07;;;;;;;0.75;0.40;;;26.40;38.90;;;;;;4148328;28;20045;-37
2023/02/04 05:24:29;;;;;;;0.28;0.25;;;26.50;38.70;;;;;;4149004;28;20041;-41
2023/02/04 05:26:51;;;;;;;0.30;0.30;;;26.60;38.60;;;;;;4151457;28;20425;-41
2023/02/04 05:29:14;;;;;;;0.30;0.20;;;26.60;38.60;;;;;;4150286;28;20064;-39
2023/02/04 05:31:36;;;;;;;0.55;0.40;;;26.60;38.40;;;;;;4148850;28;20043;-40
2023/02/04 05:33:59;;;;;;;0.20;0.20;;;26.70;38.40;;;;;;4150031;28;20099;-41
2023/02/04 05:36:21;;;;;;;1.27;0.50;;;26.80;38.10;;;;;;4144586;28;20501;-37
2023/02/04 05:38:44;;;;;;;0.30;0.30;;;26.80;37.80;;;;;;4151650;28;20033;-38
2023/02/04 05:41:06;;;;;;;0.22;0.20;;;26.90;37.80;;;;;;4148674;28;20480;-39
2023/02/04 05:43:29;;;;;;;0.28;0.20;;;26.90;37.80;;;;;;4149095;28;20037;-42
2023/02/04 05:45:51;;;;;;;0.35;0.20;;;27.00;37.80;;;;;;4143743;28;20038;-44
2023/02/04 05:48:14;;;;;;;0.65;0.25;;;27.10;37.70;;;;;;4151017;28;20054;-39
2023/02/04 05:50:36;;;;;;;0.60;0.40;;;27.10;37.60;;;;;;4145027;28;20400;-41
2023/02/04 05:52:59;;;;;;;0.40;0.30;;;27.20;37.80;;;;;;4145628;28;20858;-38
2023/02/04 05:55:21;;;;;;;0.20;0.20;;;27.30;37.80;;;;;;4145930;28;20046;-38
2023/02/04 05:57:44;;;;;;;0.38;0.30;;;27.30;37.80;;;;;;4142011;28;20107;-39
2023/02/04 06:00:10;;;;;;;1.95;0.57;;;27.40;37.80;;;;;;4144186;28;20029;-38
2023/02/04 06:02:33;;;;;;;1.02;0.30;;;27.40;38.00;;;;;;4141945;28;20080;-39
2023/02/04 06:04:55;;;;;;;0.20;0.20;;;27.50;38.20;;;;;;4139291;28;20041;-39
2023/02/04 06:07:18;;;;;;;0.25;0.25;;;27.50;38.20;;;;;;4144717;28;20065;-38
2023/02/04 06:09:41;;;;;;;0.35;0.20;;;27.60;38.40;;;;;;4143507;28;20038;-40
2023/02/04 06:12:04;;;;;;;1.27;0.30;;;27.70;38.70;;;;;;4146806;28;20025;-42
2023/02/04 06:14:26;;;;;;;0.23;0.20;;;27.70;38.40;;;;;;4151769;28;20102;-38
2023/02/04 06:16:48;;;;;;;0.20;0.20;;;27.70;38.30;;;;;;4151878;28;20036;-41
2023/02/04 06:19:12;;;;;;;0.43;0.30;;;27.80;38.80;;;;;;4151018;28;20045;-40
2023/02/04 06:21:34;;;;;;;;;;;27.90;38.70;;;;;;4151472;28;20142;-40
2023/02/04 06:23:56;;;;;;;0.22;0.22;;;27.90;38.60;;;;;;4155145;28;19913;-44
2023/02/04 06:26:19;;;;;;;0.30;0.30;;;28.00;38.40;;;;;;4154460;28;20042;-39
2023/02/04 06:28:41;;;;;;;1.02;0.45;;;28.00;38.20;;;;;;4149305;28;20088;-39
2023/02/04 06:31:04;;;;;;;0.45;0.30;;;28.10;38.40;;;;;;4153786;28;20042;-40
2023/02/04 06:33:26;;;;;;;0.63;0.30;;;28.20;38.40;;;;;;4156141;28;20045;-37
2023/02/04 06:35:49;;;;;;;0.60;0.35;;;28.20;38.30;;;;;;4148902;28;20132;-43
2023/02/04 06:38:11;;;;;;;0.90;0.30;;;28.30;38.30;;;;;;4151583;28;20495;-39
2023/02/04 06:40:33;;;;;;;0.68;0.30;;;28.30;38.20;;;;;;4153180;28;20034;-39
2023/02/04 06:42:56;;;;;;;2.90;0.85;;;28.40;38.90;;;;;;4152937;28;20049;-40
2023/02/04 06:45:18;;;;;;;3.20;2.15;;;28.40;38.40;;;;;;4152078;28;20095;-42
2023/02/04 06:47:41;;;;;;;5.50;3.05;;;28.50;38.60;;;;;;4151607;28;20049;-41
2023/02/04 06:50:03;;;;;;;4.30;3.15;;;28.50;38.70;;;;;;4149499;28;20033;-43
2023/02/04 06:52:25;;;;;;;4.38;3.70;;;28.50;38.80;;;;;;4152631;28;20363;-38
2023/02/04 06:54:48;;;;;;;5.45;3.97;;;28.60;38.80;;;;;;4156984;28;20037;-41
2023/02/04 06:57:11;;;;;;;5.10;3.65;;;28.60;38.80;;;;;;4153339;28;20090;-40
2023/02/04 06:59:34;;;;;;;6.70;3.90;;;28.60;39.60;;;;;;4156192;28;20033;-39
2023/02/04 07:01:56;;;;;;;;;;;28.60;39.00;;;;;;4158800;28;20047;-38
2023/02/04 07:04:18;;;;;;;5.90;3.38;;;28.60;39.10;;;;;;4156647;28;19919;-39
2023/02/04 07:06:41;;;;;;;5.82;3.33;;;28.60;39.00;;;;;;4152472;28;20432;-39
2023/02/04 07:09:03;;;;;;;4.68;3.22;;;28.60;39.10;;;;;;4156436;28;20045;-40
2023/02/04 07:11:26;;;;;;;4.63;2.72;;;28.60;39.00;;;;;;4157811;28;20040;-38
2023/02/04 07:13:48;;;;;;;4.03;2.50;;;28.60;39.10;;;;;;4150080;28;20536;-37
2023/02/04 07:16:12;;;;;;;4.35;2.30;;;28.50;39.10;;;;;;4152358;28;20760;-38
2023/02/04 07:18:34;;;;;;;4.20;2.60;;;28.50;39.10;;;;;;4149834;28;20171;-41
2023/02/04 07:20:56;;;;;;;3.38;2.05;;;28.60;39.20;;;;;;4152782;28;20037;-40
2023/02/04 07:23:19;;;;;;;3.28;1.95;;;28.50;39.10;;;;;;4154524;28;20045;-38
2023/02/04 07:25:43;;;;;;;2.78;1.73;;;28.60;39.10;;;;;;4157090;28;20546;-41
2023/02/04 07:28:05;;;;;;;3.70;2.10;;;28.50;39.00;;;;;;4150929;28;20061;-39
2023/02/04 07:30:27;;;;;;;3.38;1.70;;;28.50;39.10;;;;;;4155070;28;20042;-40
2023/02/04 07:32:50;;;;;;;3.47;1.52;;;28.50;39.10;;;;;;4156997;28;20041;-38
2023/02/04 07:35:12;;;;;;;2.33;1.50;;;28.50;39.10;;;;;;4153082;28;20041;-41
2023/02/04 07:37:35;;;;;;;2.45;1.52;;;28.40;39.00;;;;;;4152164;28;20053;-37
2023/02/04 07:39:57;;;;;;;3.80;1.70;;;28.40;39.10;;;;;;4149775;28;20493;-38
2023/02/04 07:42:20;;;;;;;2.40;1.25;;;28.40;39.10;;;;;;4147311;28;20052;-42
2023/02/04 07:44:42;;;;;;;2.25;1.38;;;28.40;39.20;;;;;;4153644;28;20041;-39
2023/02/04 07:47:05;;;;;;;2.05;1.17;;;28.40;39.30;;;;;;4153697;28;20050;-41
2023/02/04 07:49:27;;;;;;;1.23;0.98;;;28.40;39.30;;;;;;4149700;28;20034;-41
2023/02/04 07:51:50;;;;;;;1.70;1.07;;;28.30;39.20;;;;;;4151777;28;20048;-40
2023/02/04 07:54:12;;;;;;;1.45;0.82;;;28.30;39.40;;;;;;4157841;28;20056;-42
2023/02/04 07:56:34;;;;;;;2.28;1.10;;;28.30;39.40;;;;;;4155856;28;20454;-40
2023/02/04 07:58:57;;;;;;;1.98;1.05;;;28.20;39.30;;;;;;4157672;28;20607;-40
2023/02/04 08:01:19;;;;;;;1.98;0.95;;;28.20;39.40;;;;;;4155967;28;20188;-41
2023/02/04 08:03:42;;;;;;;1.45;0.85;;;28.20;39.40;;;;;;4157856;28;20485;-41
2023/02/04 08:06:04;;;;;;;1.13;0.70;;;28.20;39.30;;;;;;4155737;28;20041;-41
2023/02/04 08:08:26;;;;;;;1.42;0.95;;;28.20;39.40;;;;;;4153156;28;20120;-46
2023/02/04 08:10:49;;;;;;;1.00;0.88;;;28.20;39.50;;;;;;4156848;28;20112;-44
2023/02/04 08:13:11;;;;;;;1.23;0.90;;;28.10;39.20;;;;;;4156769;28;20140;-39
2023/02/04 08:15:34;;;;;;;1.90;0.70;;;28.10;39.60;;;;;;4156665;28;20048;-39
2023/02/04 08:17:56;;;;;;;2.03;0.90;;;28.10;39.60;;;;;;4155983;28;20099;-39
2023/02/04 08:20:19;;;;;;;1.15;0.70;;;28.00;39.70;;;;;;4155102;28;20068;-39
2023/02/04 08:22:41;;;;;;;4.15;0.95;;;28.00;39.80;;;;;;4154388;28;20037;-38
2023/02/04 08:25:04;;;;;;;0.88;0.57;;;28.00;40.00;;;;;;4154280;28;20038;-41
2023/02/04 08:27:26;;;;;;;0.88;0.60;;;28.00;39.90;;;;;;4155064;28;20468;-38
2023/02/04 08:29:49;;;;;;;1.50;0.70;;;28.00;39.70;;;;;;4154429;28;20045;-39
2023/02/04 08:32:15;;;;;;;2.28;0.80;;;27.90;39.90;;;;;;4147187;28;20041;-43
2023/02/04 08:34:37;;;;;;;1.40;0.40;;;27.90;39.90;;;;;;4153978;28;20045;-38
2023/02/04 08:36:59;;;;;;;0.95;0.70;;;27.90;39.90;;;;;;4154139;28;20472;-40
2023/02/04 08:39:22;;;;;;;1.92;0.50;;;27.90;40.10;;;;;;4154846;28;20037;-40
2023/02/04 08:41:44;;;;;;;0.93;0.50;;;27.90;40.20;;;;;;4152348;28;20306;-38
2023/02/04 08:44:07;;;;;;;1.15;0.60;;;27.80;40.10;;;;;;4153306;28;20055;-38
2023/02/04 08:46:29;;;;;;;1.83;0.68;;;27.80;40.10;;;;;;4153561;28;20165;-39
2023/02/04 08:48:52;;;;;;;2.20;0.93;;;27.80;40.00;;;;;;4155098;28;20049;-39
2023/02/04 08:51:15;;;;;;;2.40;0.60;;;27.80;39.90;;;;;;4154060;28;20413;-38
2023/02/04 08:53:39;;;;;;;;;;;27.80;39.80;;;;;;4156903;28;20128;-37
2023/02/04 08:56:01;;;;;;;1.05;0.68;;;27.80;39.80;;;;;;4153789;28;19913;-38
2023/02/04 08:58:24;;;;;;;3.45;0.60;;;27.70;39.60;;;;;;4152489;28;20497;-40
2023/02/04 09:00:46;;;;;;;0.88;0.50;;;27.70;39.60;;;;;;4154746;28;20552;-39
2023/02/04 09:03:09;;;;;;;1.73;0.77;;;27.70;39.60;;;;;;4152344;28;20196;-39
2023/02/04 09:05:31;;;;;;;1.30;0.57;;;27.70;39.50;;;;;;4153373;28;20045;-38
2023/02/04 09:07:53;;;;;;;1.50;0.50;;;27.70;39.50;;;;;;4153940;28;20057;-38
2023/02/04 09:10:16;;;;;;;1.90;0.55;;;27.60;39.80;;;;;;4153187;28;20048;-39
2023/02/04 09:12:39;;;;;;;1.00;0.60;;;27.50;41.10;;;;;;4151184;28;20527;-39
2023/02/04 09:15:01;;;;;;;0.95;0.57;;;27.30;40.90;;;;;;4151702;28;20044;-39
2023/02/04 09:17:24;;;;;;;0.98;0.50;;;27.20;41.40;;;;;;4148479;28;20037;-38
2023/02/04 09:19:46;;;;;;;1.17;0.60;;;27.00;41.30;;;;;;4153984;28;20030;-39
2023/02/04 09:22:08;;;;;;;1.63;0.77;;;26.80;41.20;;;;;;4152971;28;20493;-42
2023/02/04 09:24:31;;;;;;;1.65;0.65;;;26.70;41.00;;;;;;4149128;28;20120;-39
2023/02/04 09:26:53;;;;;;;1.63;0.55;;;26.50;41.30;;;;;;4147057;28;20414;-39
2023/02/04 09:29:16;;;;;;;0.82;0.60;;;26.40;41.20;;;;;;4142714;28;20049;-40
2023/02/04 09:31:38;;;;;;;1.02;0.55;;;26.30;42.60;;;;;;4142356;28;20488;-41
2023/02/04 09:34:01;;;;;;;1.30;0.40;;;26.30;43.20;;;;;;4150854;28;20108;-42
2023/02/04 09:36:27;;;;;;;1.52;0.63;;;26.30;43.20;;;;;;4147354;28;20107;-38
2023/02/04 09:38:49;;;;;;;0.82;0.40;;;26.30;43.30;;;;;;4151301;28;20333;-38
2023/02/04 09:41:12;;;;;;;1.20;0.90;;;26.20;42.80;;;;;;4152449;28;20041;-38
2023/02/04 09:43:39;;;;;;;1.10;0.60;;;26.00;41.80;;;;;;4150004;28;20140;-39
2023/02/04 09:46:02;;;;;;;0.65;0.60;;;25.80;42.10;;;;;;4144809;28;20069;-39
2023/02/04 09:48:25;;;;;;;0.57;0.47;;;25.70;41.90;;;;;;4149353;28;20548;-39
2023/02/04 09:50:49;;;;;;;0.40;0.40;;;25.50;42.00;;;;;;4148760;28;20082;-40
2023/02/04 09:53:15;;;;;;;0.73;0.47;;;25.40;42.80;;;;;;4144761;28;20041;-39
2023/02/04 09:55:43;;;;;;;0.82;0.50;;;25.40;43.60;;;;;;4144949;28;20104;-41
2023/02/04 09:58:12;;;;;;;1.10;0.57;;;25.40;43.00;;;;;;4149323;28;20041;-39
2023/02/04 10:00:34;;;;;;;0.40;0.35;;;25.50;42.80;;;;;;4148574;28;20044;-40
2023/02/04 10:03:01;;;;;;;0.40;0.30;;;25.50;43.20;;;;;;4151213;28;20041;-39
2023/02/04 10:05:36;;;;;;;0.50;0.30;;;25.50;42.90;;;;;;4148828;28;20408;-39
2023/02/04 10:07:58;;;;;;;0.40;0.40;;;25.50;42.80;;;;;;4145212;28;20509;-38
2023/02/04 10:10:24;;;;;;;0.32;0.32;;;25.50;42.70;;;;;;4151965;28;20049;-39
2023/02/04 10:12:49;;;;;;;0.35;0.30;;;25.50;43.10;;;;;;4149999;28;20045;-38
2023/02/04 10:15:19;;;;;;;0.45;0.45;;;25.60;42.50;;;;;;4151640;28;20051;-39
2023/02/04 10:17:42;;;;;;;0.65;0.40;;;25.60;42.50;;;;;;4151001;28;20038;-39
2023/02/04 10:20:05;;;;;;;0.35;0.28;;;25.60;42.50;;;;;;4148755;28;20449;-38
2023/02/04 10:22:28;;;;;;;0.30;0.30;;;25.60;42.40;;;;;;4151759;28;20056;-38
2023/02/04 10:24:50;;;;;;;0.47;0.30;;;25.60;42.40;;;;;;4152640;28;20473;-38
2023/02/04 10:27:17;;;;;;;0.30;0.30;;;25.70;42.40;;;;;;4150832;28;20130;-38
2023/02/04 10:29:41;;;;;;;0.55;0.30;;;25.70;42.40;;;;;;4155946;28;20642;-38
2023/02/04 10:32:03;;;;;;;0.15;0.15;;;25.70;42.40;;;;;;4155766;28;20136;-37
2023/02/04 10:34:37;;;;;;;0.20;0.20;;;25.80;42.50;;;;;;4152684;28;20354;-38
2023/02/04 10:37:00;;;;;;;0.45;0.30;;;25.80;42.50;;;;;;4152320;28;20313;-38
2023/02/04 10:39:27;;;;;;;0.37;0.30;;;25.80;42.50;;;;;;4151107;28;20035;-37
2023/02/04 10:41:58;;;;;;;0.28;0.20;;;25.80;42.50;;;;;;4154697;28;20880;-38
2023/02/04 10:44:34;;;;;;;0.63;0.20;;;25.80;42.50;;;;;;4154721;28;20041;-38
2023/02/04 10:47:02;;;;;;;0.30;0.30;;;25.90;42.60;;;;;;4153002;28;20488;-38
2023/02/04 10:49:24;;;;;;;0.75;0.30;;;25.90;42.60;;;;;;4151873;28;20037;-38
2023/02/04 10:51:49;;;;;;;0.30;0.30;;;25.90;42.60;;;;;;4154614;28;20104;-39
2023/02/04 10:54:31;;;;;;;0.40;0.22;;;25.90;42.60;;;;;;4149048;28;20195;-38
2023/02/04 10:56:53;;;;;;;0.68;0.40;;;25.90;42.70;;;;;;4153986;28;20676;-41
2023/02/04 10:59:25;;;;;;;0.93;0.35;;;25.90;42.80;;;;;;4151410;28;20048;-38
2023/02/04 11:01:48;;;;;;;0.40;0.20;;;25.90;42.70;;;;;;4154089;28;20033;-37
2023/02/04 11:04:10;;;;;;;0.20;0.20;;;25.90;42.70;;;;;;4150713;28;20048;-39
2023/02/04 11:06:33;;;;;;;0.30;0.30;;;25.90;42.80;;;;;;4151743;28;20111;-39
2023/02/04 11:08:58;;;;;;;0.35;0.30;;;25.90;42.80;;;;;;4155816;28;20527;-38
2023/02/04 11:11:25;;;;;;;0.28;0.28;;;25.90;42.80;;;;;;4153394;28;20120;-39
2023/02/04 11:13:50;;;;;;;0.20;0.20;;;25.90;42.90;;;;;;4153515;28;20304;-39
2023/02/04 11:16:27;;;;;;;0.47;0.25;;;26.00;42.90;;;;;;4152591;28;20052;-38
2023/02/04 11:19:27;;;;;;;0.20;0.20;;;26.00;42.90;;;;;;4154208;28;20038;-38
2023/02/04 11:21:49;;;;;;;0.57;0.30;;;25.90;42.90;;;;;;4154804;28;20029;-45
2023/02/04 11:24:14;;;;;;;0.43;0.30;;;26.00;42.90;;;;;;4153743;28;20119;-38
2023/02/04 11:26:51;;;;;;;0.30;0.30;;;25.90;42.90;;;;;;4151699;28;20099;-38
2023/02/04 11:29:37;;;;;;;0.98;0.30;;;25.90;42.90;;;;;;4154464;28;20129;-41
2023/02/04 11:32:03;;;;;;;0.35;0.32;;;25.90;42.90;;;;;;4151776;28;20500;-40
2023/02/04 11:34:28;;;;;;;0.43;0.32;;;26.00;42.90;;;;;;4152280;28;20041;-39
2023/02/04 11:37:14;;;;;;;0.30;0.30;;;26.00;42.90;;;;;;4152185;28;20049;-41
2023/02/04 11:39:42;;;;;;;0.40;0.32;;;26.00;42.90;;;;;;4147851;28;20037;-38
2023/02/04 11:42:05;;;;;;;0.75;0.30;;;26.00;42.90;;;;;;4153366;28;20037;-40
2023/02/04 11:44:28;;;;;;;0.70;0.35;;;25.90;42.90;;;;;;4152142;28;20049;-43
2023/02/04 11:46:55;;;;;;;2.28;0.70;;;25.90;42.80;;;;;;4154450;28;20608;-39
2023/02/04 11:49:20;;;;;;;1.75;0.40;;;25.90;42.80;;;;;;4153237;28;20071;-38
2023/02/04 11:51:44;;;;;;;2.65;0.57;;;25.90;42.90;;;;;;4153748;28;20040;-39
2023/02/04 11:54:08;;;;;;;3.83;1.20;;;26.00;43.00;;;;;;4152728;28;20061;-41
2023/02/04 11:56:31;;;;;;;2.25;0.47;;;25.90;43.00;;;;;;4153182;28;20124;-37
2023/02/04 11:58:57;;;;;;;2.08;0.60;;;25.90;43.10;;;;;;4151982;28;20072;-39
2023/02/04 12:01:20;;;;;;;5.00;1.25;;;25.90;43.30;;;;;;4151463;28;20045;-40
2023/02/04 12:03:48;;;;;;;10.02;1.48;;;26.00;43.80;;;;;;4152644;28;20037;-40
2023/02/04 12:06:25;;;;;;;2.00;0.70;;;26.00;43.80;;;;;;4152390;28;20505;-42
2023/02/04 12:08:47;;;;;;;6.32;1.10;;;26.00;43.80;;;;;;4150368;28;20049;-41
2023/02/04 12:11:26;;;;;;;3.03;0.73;;;26.10;44.10;;;;;;4151916;28;20045;-42
2023/02/04 12:13:51;;;;;;;4.03;0.85;;;26.10;44.00;;;;;;4152821;28;20045;-44
2023/02/04 12:16:13;;;;;;;5.20;1.00;;;26.10;44.10;;;;;;4152958;28;20073;-42
2023/02/04 12:18:36;;;;;;;6.40;1.02;;;26.10;44.00;;;;;;4150026;28;20048;-42
2023/02/04 12:20:59;;;;;;;2.75;0.77;;;26.10;44.20;;;;;;4152275;28;20034;-40
2023/02/04 12:23:22;;;;;;;9.18;1.25;;;26.10;44.20;;;;;;4151502;28;20124;-41
2023/02/04 12:25:45;;;;;;;13.30;1.30;;;26.10;44.20;;;;;;4149860;28;20037;-41
2023/02/04 12:28:07;;;;;;;9.63;1.33;;;26.10;44.60;;;;;;4147749;28;20053;-44
2023/02/04 12:30:30;;;;;;;7.05;0.90;;;26.10;44.90;;;;;;4154847;28;20068;-45